Kyokusho Maru — JL6605 — position and weather

sailwx.info

Track history (hours):
 
Tides and Currents Weather Stations Pressure Air Temp Water Temp Dewpoint Dewpoint Depression Visibility Wind Speed Wind Dir Waves Ship Positions

Kyokusho Maru

Last reported at 2014-Oct-25 02:15 UTC. Time now 2014-Oct-25 22:12 UTC.
Position N 34°10' E 132°19'.

Length 77 m; draft 3.6 m.

Type: Tanker. MMSI: 431501667.

Date/timePositionNaut miles runAvg speedWind from/ knotsBaromVisibWave heightAir tempDewpointWater temp
2014-Oct-25 02:15N 34°10' E 132°19'0 0.0
2014-Oct-24 17:17N 34°10' E 132°19'0 0.0
2014-Oct-24 09:14N 34°10' E 132°19'0 0.0
2014-Oct-23 23:23N 34°10' E 132°19'0 0.0
2014-Oct-23 22:29N 34°10' E 132°19'0 0.0
2014-Oct-23 21:17N 34°10' E 132°19'0 0.0
2014-Oct-23 20:29N 34°10' E 132°19'0 0.0
2014-Oct-23 19:32N 34°10' E 132°19'0 0.0
2014-Oct-23 18:32N 34°10' E 132°19'0 0.0
2014-Oct-23 17:29N 34°10' E 132°19'0 0.0
2014-Oct-23 15:26N 34°10' E 132°19'0 0.0
2014-Oct-23 14:32N 34°10' E 132°19'0 0.0
2014-Oct-23 13:32N 34°10' E 132°19'0 0.0
2014-Oct-23 12:29N 34°10' E 132°19'0 0.0
2014-Oct-23 09:05N 34°10' E 132°19'0 0.0
2014-Oct-23 08:32N 34°10' E 132°19'0 0.0
2014-Oct-23 03:17N 34°10' E 132°19'4 1.1
2014-Oct-22 23:19N 34°13' E 132°15'0 0.0
2014-Oct-20 23:26N 34°13' E 132°15'  
2014-Oct-16 06:11N 34°08' E 134°56'711.8
2014-Oct-16 05:33N 34°08' E 135°05'3 0.5
2014-Oct-16 00:33N 34°07' E 135°08'1 0.8
2014-Oct-15 23:20N 34°08' E 135°07'0 0.0
2014-Oct-15 22:32N 34°08' E 135°07'0 0.0
2014-Oct-15 21:32N 34°08' E 135°07'0 0.0
2014-Oct-15 20:32N 34°08' E 135°07'0 0.0
2014-Oct-15 19:32N 34°08' E 135°07'0 0.0
2014-Oct-15 18:32N 34°08' E 135°07'0 0.0
2014-Oct-15 17:32N 34°08' E 135°07'0 0.0
2014-Oct-15 16:32N 34°08' E 135°07'0 0.0
2014-Oct-15 15:32N 34°08' E 135°07'0 0.0
2014-Oct-15 14:32N 34°08' E 135°07'0 0.0
2014-Oct-15 13:32N 34°08' E 135°07'0 0.0
2014-Oct-15 12:32N 34°08' E 135°07'0 0.0
2014-Oct-15 11:32N 34°08' E 135°07'0 0.0
2014-Oct-15 10:05N 34°08' E 135°07'0 0.0
2014-Oct-15 09:20N 34°08' E 135°07'0 0.1
2014-Oct-15 08:33N 34°08' E 135°07'  
Track history (hours):
 
Tides and Currents Weather Stations Pressure Air Temp Water Temp Dewpoint Dewpoint Depression Visibility Wind Speed Wind Dir Waves Ship Positions

Kyokusho Maru

Last reported at 2014-Oct-25 02:15 UTC. Time now 2014-Oct-25 22:12 UTC.
Position N 34°10' E 132°19'.

Length 77 m; draft 3.6 m.

Type: Tanker. MMSI: 431501667.

Date/timePositionNaut miles runAvg speedWind from/ knotsBaromVisibWave heightAir tempDewpointWater temp
2014-Oct-25 02:15N 34°10' E 132°19'0 0.0
2014-Oct-24 17:17N 34°10' E 132°19'0 0.0
2014-Oct-24 09:14N 34°10' E 132°19'0 0.0
2014-Oct-23 23:23N 34°10' E 132°19'0 0.0
2014-Oct-23 22:29N 34°10' E 132°19'0 0.0
2014-Oct-23 21:17N 34°10' E 132°19'0 0.0
2014-Oct-23 20:29N 34°10' E 132°19'0 0.0
2014-Oct-23 19:32N 34°10' E 132°19'0 0.0
2014-Oct-23 18:32N 34°10' E 132°19'0 0.0
2014-Oct-23 17:29N 34°10' E 132°19'0 0.0
2014-Oct-23 15:26N 34°10' E 132°19'0 0.0
2014-Oct-23 14:32N 34°10' E 132°19'0 0.0
2014-Oct-23 13:32N 34°10' E 132°19'0 0.0
2014-Oct-23 12:29N 34°10' E 132°19'0 0.0
2014-Oct-23 09:05N 34°10' E 132°19'0 0.0
2014-Oct-23 08:32N 34°10' E 132°19'0 0.0
2014-Oct-23 03:17N 34°10' E 132°19'4 1.1
2014-Oct-22 23:19N 34°13' E 132°15'0 0.0
2014-Oct-20 23:26N 34°13' E 132°15'  
2014-Oct-16 06:11N 34°08' E 134°56'711.8
2014-Oct-16 05:33N 34°08' E 135°05'3 0.5
2014-Oct-16 00:33N 34°07' E 135°08'1 0.8
2014-Oct-15 23:20N 34°08' E 135°07'0 0.0
2014-Oct-15 22:32N 34°08' E 135°07'0 0.0
2014-Oct-15 21:32N 34°08' E 135°07'0 0.0
2014-Oct-15 20:32N 34°08' E 135°07'0 0.0
2014-Oct-15 19:32N 34°08' E 135°07'0 0.0
2014-Oct-15 18:32N 34°08' E 135°07'0 0.0
2014-Oct-15 17:32N 34°08' E 135°07'0 0.0
2014-Oct-15 16:32N 34°08' E 135°07'0 0.0
2014-Oct-15 15:32N 34°08' E 135°07'0 0.0
2014-Oct-15 14:32N 34°08' E 135°07'0 0.0
2014-Oct-15 13:32N 34°08' E 135°07'0 0.0
2014-Oct-15 12:32N 34°08' E 135°07'0 0.0
2014-Oct-15 11:32N 34°08' E 135°07'0 0.0
2014-Oct-15 10:05N 34°08' E 135°07'0 0.0
2014-Oct-15 09:20N 34°08' E 135°07'0 0.1
2014-Oct-15 08:33N 34°08' E 135°07'  

Dump ship's entire track history